createdAt,value
2022-11-25T00:01:12.230Z,78.84
2022-11-25T00:03:39.825Z,80.03
2022-11-25T00:06:16.142Z,79.11
2022-11-25T00:08:44.490Z,78.92
2022-11-25T00:11:12.240Z,80.35
2022-11-25T00:13:40.287Z,79.12
2022-11-25T00:16:12.279Z,78.50
2022-11-25T00:18:39.957Z,78.55
2022-11-25T00:21:08.654Z,78.79
2022-11-25T00:23:35.716Z,80.77
2022-11-25T00:26:13.851Z,81.01
2022-11-25T00:28:42.151Z,79.33
2022-11-25T00:31:11.496Z,79.15
2022-11-25T00:33:39.101Z,78.88
2022-11-25T00:36:07.378Z,78.39
2022-11-25T00:38:34.124Z,78.64
2022-11-25T00:41:39.238Z,78.31
2022-11-25T00:44:24.859Z,78.96
2022-11-25T00:46:51.633Z,79.82
2022-11-25T00:49:18.330Z,79.56
2022-11-25T00:51:46.016Z,79.07
2022-11-25T00:54:12.823Z,78.84
2022-11-25T00:56:39.790Z,78.97
2022-11-25T00:59:06.481Z,78.52
2022-11-25T01:01:33.879Z,79.22
2022-11-25T01:04:02.365Z,78.99
2022-11-25T01:06:29.049Z,78.70
2022-11-25T01:08:55.822Z,78.13
2022-11-25T01:11:23.441Z,78.71
2022-11-25T01:13:50.776Z,78.78
2022-11-25T01:16:19.450Z,78.21
2022-11-25T01:18:46.982Z,78.33
2022-11-25T01:21:14.436Z,77.92
2022-11-25T01:23:42.029Z,78.53
2022-11-25T01:26:11.446Z,78.52
2022-11-25T01:28:38.379Z,78.69
2022-11-25T01:31:17.007Z,79.42
2022-11-25T01:33:44.927Z,78.48
2022-11-25T01:36:17.398Z,78.48
2022-11-25T01:38:45.024Z,80.02
2022-11-25T01:41:14.442Z,80.30
2022-11-25T01:43:41.793Z,79.71
2022-11-25T01:46:26.467Z,78.94
2022-11-25T01:48:55.391Z,78.62
2022-11-25T01:51:26.096Z,78.06
2022-11-25T01:53:54.915Z,78.63
2022-11-25T01:56:21.661Z,78.58
2022-11-25T01:58:49.363Z,78.46
2022-11-25T02:01:16.898Z,78.17
2022-11-25T02:03:47.493Z,77.90
2022-11-25T02:06:22.732Z,78.25
2022-11-25T02:08:52.602Z,78.10
2022-11-25T02:11:20.315Z,78.74
2022-11-25T02:13:48.064Z,77.92
2022-11-25T02:16:18.078Z,78.00
2022-11-25T02:18:45.507Z,78.83
2022-11-25T02:21:14.444Z,79.31
2022-11-25T02:23:49.160Z,78.73
2022-11-25T02:26:16.115Z,78.30
2022-11-25T02:28:42.906Z,77.75
2022-11-25T02:31:09.585Z,77.36
2022-11-25T02:33:36.570Z,77.22
2022-11-25T02:36:06.016Z,77.67
2022-11-25T02:38:38.212Z,78.84
2022-11-25T02:41:14.977Z,78.03
2022-11-25T02:43:44.059Z,79.38
2022-11-25T02:46:16.115Z,80.75
2022-11-25T02:49:07.896Z,79.79
2022-11-25T02:51:33.599Z,78.87
2022-11-25T02:54:01.611Z,80.03
2022-11-25T02:56:33.679Z,81.42
2022-11-25T02:59:01.013Z,81.00
2022-11-25T03:01:31.468Z,81.11
2022-11-25T03:03:59.351Z,82.04
2022-11-25T03:06:28.882Z,81.06
2022-11-25T03:08:56.033Z,79.92
2022-11-25T03:11:45.913Z,79.19
2022-11-25T03:14:13.847Z,79.16
2022-11-25T03:16:42.296Z,78.82
2022-11-25T03:19:09.076Z,78.77
2022-11-25T03:21:35.809Z,80.64
2022-11-25T03:24:02.730Z,79.76
2022-11-25T03:26:29.693Z,79.06
2022-11-25T03:28:56.431Z,78.98
2022-11-25T03:31:23.439Z,79.08
2022-11-25T03:33:50.215Z,79.16
2022-11-25T03:36:23.036Z,79.97
2022-11-25T03:38:49.734Z,78.92
2022-11-25T03:41:16.504Z,78.55
2022-11-25T03:43:43.173Z,78.52
2022-11-25T03:46:10.140Z,79.70
2022-11-25T03:48:37.476Z,78.96
2022-11-25T03:51:04.160Z,80.98
2022-11-25T03:53:31.054Z,81.29
2022-11-25T03:56:00.297Z,79.84
2022-11-25T03:58:26.960Z,79.50
2022-11-25T04:00:54.948Z,81.42
2022-11-25T04:03:21.801Z,80.13
2022-11-25T04:05:48.895Z,79.27
2022-11-25T04:08:15.606Z,79.79
2022-11-25T04:10:44.750Z,79.20
2022-11-25T04:13:11.930Z,79.08
2022-11-25T04:15:49.071Z,78.61
2022-11-25T04:18:18.132Z,79.56
2022-11-25T04:20:45.287Z,80.57
2022-11-25T04:23:15.681Z,79.74
2022-11-25T04:25:54.633Z,79.54
2022-11-25T04:28:26.697Z,80.93
2022-11-25T04:30:53.488Z,79.99
2022-11-25T04:33:20.240Z,79.14
2022-11-25T04:35:48.159Z,79.44
2022-11-25T04:38:14.874Z,79.96
2022-11-25T04:40:42.013Z,79.19
2022-11-25T04:43:19.199Z,81.06
2022-11-25T04:46:13.023Z,81.73
2022-11-25T04:48:37.611Z,80.17
2022-11-25T04:51:04.494Z,80.81
2022-11-25T04:53:32.016Z,80.33
2022-11-25T04:55:58.931Z,79.59
2022-11-25T04:58:44.670Z,79.87
2022-11-25T05:01:11.538Z,82.00
2022-11-25T05:03:48.737Z,80.47
2022-11-25T05:06:17.841Z,79.95
2022-11-25T05:08:44.551Z,79.56
2022-11-25T05:11:12.294Z,79.56
2022-11-25T05:13:39.201Z,79.70
2022-11-25T05:16:06.991Z,81.32
2022-11-25T05:18:33.744Z,79.87
2022-11-25T05:21:05.337Z,80.09
2022-11-25T05:23:36.318Z,79.20
2022-11-25T05:26:04.015Z,79.42
2022-11-25T05:28:37.993Z,80.03
2022-11-25T05:31:04.934Z,79.72
2022-11-25T05:33:32.711Z,78.99
2022-11-25T05:36:02.216Z,78.35
2022-11-25T05:38:36.045Z,78.72
2022-11-25T05:41:05.718Z,77.81
2022-11-25T05:43:32.696Z,78.95
2022-11-25T05:46:05.030Z,79.05
2022-11-25T05:48:32.441Z,78.73
2022-11-25T05:51:03.672Z,78.76
2022-11-25T05:53:31.624Z,78.75
2022-11-25T05:56:01.388Z,78.08
2022-11-25T05:58:49.747Z,78.24
2022-11-25T06:01:16.961Z,77.35
2022-11-25T06:03:45.139Z,76.83
2022-11-25T06:06:12.275Z,76.69
2022-11-25T06:08:39.916Z,75.83
2022-11-25T06:11:08.154Z,75.33
2022-11-25T06:13:35.085Z,75.62
2022-11-25T06:16:17.155Z,75.16
2022-11-25T06:18:47.869Z,74.85
2022-11-25T06:21:15.189Z,74.92
2022-11-25T06:23:45.009Z,74.14
2022-11-25T06:26:21.662Z,74.44
2022-11-25T06:28:48.812Z,74.03
2022-11-25T06:31:17.644Z,73.67
2022-11-25T06:33:54.504Z,74.54
2022-11-25T06:36:22.366Z,74.96
2022-11-25T06:38:51.002Z,75.96
2022-11-25T06:41:17.918Z,75.71
2022-11-25T06:43:44.706Z,75.42
2022-11-25T06:46:15.658Z,76.04
2022-11-25T06:48:44.092Z,76.82
2022-11-25T06:51:12.543Z,77.25
2022-11-25T06:53:39.565Z,78.16
2022-11-25T06:56:14.218Z,78.59
2022-11-25T06:58:42.037Z,78.74
2022-11-25T07:01:14.875Z,78.40
2022-11-25T07:03:43.185Z,79.19
2022-11-25T07:06:11.014Z,79.23
2022-11-25T07:08:37.808Z,80.43
2022-11-25T07:11:07.172Z,80.46
2022-11-25T07:13:34.217Z,80.07
2022-11-25T07:16:03.125Z,79.70
2022-11-25T07:18:34.325Z,79.74
2022-11-25T07:21:07.177Z,80.13
2022-11-25T07:23:37.645Z,80.09
2022-11-25T07:26:09.560Z,80.38
2022-11-25T07:28:37.329Z,80.00
2022-11-25T07:31:32.422Z,80.55
2022-11-25T07:34:01.661Z,80.20
2022-11-25T07:36:29.624Z,80.43
2022-11-25T07:38:57.998Z,81.18
2022-11-25T07:41:28.362Z,80.88
2022-11-25T07:43:57.691Z,80.35
2022-11-25T07:46:38.647Z,80.11
2022-11-25T07:49:12.299Z,80.38
2022-11-25T07:51:41.839Z,80.28
2022-11-25T07:54:11.408Z,80.20
2022-11-25T07:56:42.609Z,80.39
2022-11-25T07:59:13.320Z,80.84
2022-11-25T08:01:40.756Z,80.41
2022-11-25T08:04:09.242Z,79.72
2022-11-25T08:06:39.395Z,79.54
2022-11-25T08:09:06.499Z,79.70
2022-11-25T08:11:33.334Z,80.23
2022-11-25T08:14:00.119Z,79.63
2022-11-25T08:16:33.247Z,79.07
2022-11-25T08:19:01.950Z,79.28
2022-11-25T08:21:28.798Z,79.15
2022-11-25T08:23:56.193Z,79.15
2022-11-25T08:26:26.113Z,79.51
2022-11-25T08:28:54.003Z,79.61
2022-11-25T08:31:23.213Z,79.68
2022-11-25T08:33:52.320Z,80.28
2022-11-25T08:36:19.538Z,80.08
2022-11-25T08:38:48.471Z,80.55
2022-11-25T08:41:43.153Z,80.25
2022-11-25T08:44:12.999Z,80.19
2022-11-25T08:46:40.211Z,80.24
2022-11-25T08:49:09.339Z,79.79
2022-11-25T08:51:37.232Z,80.20
2022-11-25T08:54:05.312Z,81.25
2022-11-25T08:56:31.983Z,80.36
2022-11-25T08:59:00.240Z,80.34
2022-11-25T09:01:27.744Z,80.14
2022-11-25T09:03:56.397Z,80.57
2022-11-25T09:06:25.028Z,80.52
2022-11-25T09:08:53.417Z,79.33
2022-11-25T09:11:20.348Z,79.23
2022-11-25T09:13:47.101Z,79.81
2022-11-25T09:16:15.305Z,79.96
2022-11-25T09:18:42.374Z,80.58
2022-11-25T09:21:10.908Z,79.74
2022-11-25T09:23:38.928Z,79.11
2022-11-25T09:26:06.534Z,79.89
2022-11-25T09:28:33.808Z,79.50
2022-11-25T09:31:06.983Z,79.72
2022-11-25T09:33:37.186Z,78.54
2022-11-25T09:36:06.120Z,78.63
2022-11-25T09:38:34.139Z,78.20
2022-11-25T09:41:06.147Z,77.69
2022-11-25T09:44:07.588Z,76.98
2022-11-25T09:46:59.772Z,76.86
2022-11-25T09:49:41.616Z,76.93
2022-11-25T09:52:33.413Z,78.29
2022-11-25T09:55:19.997Z,77.68
2022-11-25T09:58:08.427Z,77.86
2022-11-25T10:00:42.427Z,76.40
2022-11-25T10:03:15.189Z,76.49
2022-11-25T10:05:47.426Z,77.39
2022-11-25T10:08:23.731Z,77.04
2022-11-25T10:10:55.532Z,77.53
2022-11-25T10:13:32.449Z,77.04
2022-11-25T10:16:02.573Z,76.92
2022-11-25T10:18:39.581Z,77.46
2022-11-25T10:21:06.556Z,76.60
2022-11-25T10:23:35.512Z,76.19
2022-11-25T10:26:13.129Z,75.96
2022-11-25T10:28:42.132Z,76.02
2022-11-25T10:31:12.064Z,75.16
2022-11-25T10:33:47.963Z,73.08
2022-11-25T10:36:18.604Z,72.52
2022-11-25T10:38:56.395Z,71.92
2022-11-25T10:41:27.506Z,73.00
2022-11-25T10:43:54.585Z,72.30
2022-11-25T10:47:11.110Z,71.38
2022-11-25T10:49:27.190Z,70.73
2022-11-25T10:51:54.909Z,68.88
2022-11-25T10:54:39.315Z,70.82
2022-11-25T10:57:32.506Z,70.69
2022-11-25T11:00:00.998Z,72.17
2022-11-25T11:02:29.818Z,70.57
2022-11-25T11:05:03.922Z,70.49
2022-11-25T11:07:33.515Z,70.22
2022-11-25T11:10:23.744Z,69.84
2022-11-25T11:13:02.445Z,70.32
2022-11-25T11:15:41.915Z,71.95
2022-11-25T11:18:21.170Z,71.38
2022-11-25T11:20:49.804Z,71.18
2022-11-25T11:23:16.906Z,73.72
2022-11-25T11:25:55.972Z,72.87
2022-11-25T11:28:35.179Z,71.60
2022-11-25T11:31:25.356Z,71.59
2022-11-25T11:33:52.167Z,72.48
2022-11-25T11:36:41.396Z,72.75
2022-11-25T11:40:00.323Z,72.65
2022-11-25T11:42:35.929Z,73.15
2022-11-25T11:45:26.229Z,73.10
2022-11-25T11:48:28.835Z,72.54
2022-11-25T11:51:27.886Z,72.93
2022-11-25T11:54:04.924Z,72.25
2022-11-25T11:56:39.169Z,71.42
2022-11-25T11:59:30.293Z,72.46
2022-11-25T12:02:19.121Z,73.24
2022-11-25T12:04:57.494Z,74.09
2022-11-25T12:07:55.189Z,74.09
2022-11-25T12:10:25.262Z,73.93
2022-11-25T12:13:13.599Z,73.79
2022-11-25T12:15:40.542Z,73.73
2022-11-25T12:18:24.563Z,73.34
2022-11-25T12:20:52.281Z,73.44
2022-11-25T12:23:26.641Z,73.72
2022-11-25T12:25:58.549Z,72.06
2022-11-25T12:28:52.618Z,73.15
2022-11-25T12:31:28.042Z,72.63
2022-11-25T12:34:21.867Z,73.29
2022-11-25T12:36:49.057Z,72.80
2022-11-25T12:39:28.546Z,72.93
2022-11-25T12:41:59.879Z,72.13
2022-11-25T12:45:03.807Z,73.06
2022-11-25T12:47:31.869Z,73.36
2022-11-25T12:49:58.604Z,74.08
2022-11-25T12:53:01.469Z,73.48
2022-11-25T12:55:30.792Z,72.65
2022-11-25T12:58:16.878Z,73.65
2022-11-25T13:01:12.907Z,73.43
2022-11-25T13:04:14.867Z,72.97
2022-11-25T13:07:27.766Z,73.17
2022-11-25T13:10:19.108Z,73.45
2022-11-25T13:13:17.657Z,73.11
2022-11-25T13:15:48.637Z,72.91
2022-11-25T13:18:19.041Z,73.02
2022-11-25T13:20:51.016Z,73.85
2022-11-25T13:23:19.170Z,74.82
2022-11-25T13:25:47.964Z,74.79
2022-11-25T13:28:35.042Z,75.62
2022-11-25T13:31:13.991Z,75.07
2022-11-25T13:33:43.654Z,74.90
2022-11-25T13:36:24.281Z,74.71
2022-11-25T13:38:50.791Z,74.01
2022-11-25T13:41:23.570Z,74.57
2022-11-25T13:44:11.974Z,74.39
2022-11-25T13:46:39.158Z,74.25
2022-11-25T13:49:51.330Z,75.01
2022-11-25T13:52:17.919Z,74.06
2022-11-25T13:54:49.220Z,74.08
2022-11-25T13:57:24.539Z,74.59
2022-11-25T13:59:55.493Z,74.11
2022-11-25T14:02:31.791Z,74.82
2022-11-25T14:05:34.635Z,74.75
2022-11-25T14:08:26.768Z,75.68
2022-11-25T14:11:18.470Z,74.72
2022-11-25T14:14:06.865Z,74.58
2022-11-25T14:16:50.963Z,75.14
2022-11-25T14:19:58.998Z,74.54
2022-11-25T14:23:22.175Z,74.68
2022-11-25T14:25:57.197Z,75.16
2022-11-25T14:28:29.793Z,75.64
2022-11-25T14:31:01.036Z,75.41
2022-11-25T14:33:43.760Z,75.36
2022-11-25T14:36:22.185Z,75.79
2022-11-25T14:39:00.044Z,75.77
2022-11-25T14:41:37.257Z,75.96
2022-11-25T14:44:11.682Z,76.30
2022-11-25T14:46:56.231Z,75.90
2022-11-25T14:49:47.010Z,76.01
2022-11-25T14:52:11.190Z,76.44
2022-11-25T14:54:42.570Z,76.13
2022-11-25T14:57:09.563Z,76.40
2022-11-25T14:59:39.766Z,76.42
2022-11-25T15:02:24.232Z,75.98
2022-11-25T15:04:50.961Z,75.89
2022-11-25T15:07:26.307Z,75.64
2022-11-25T15:09:56.252Z,75.72
2022-11-25T15:12:26.318Z,75.82
2022-11-25T15:14:53.920Z,75.42
2022-11-25T15:17:31.106Z,75.16
2022-11-25T15:20:01.664Z,75.75
2022-11-25T15:22:28.966Z,75.47
2022-11-25T15:25:07.634Z,75.44
2022-11-25T15:27:34.500Z,75.69
2022-11-25T15:30:21.519Z,75.60
2022-11-25T15:32:48.350Z,75.61
2022-11-25T15:35:23.704Z,75.31
2022-11-25T15:37:50.411Z,75.13
2022-11-25T15:40:36.997Z,75.07
2022-11-25T15:43:07.251Z,75.34
2022-11-25T15:45:44.816Z,75.79
2022-11-25T15:48:27.851Z,76.26
2022-11-25T15:51:21.895Z,74.59
2022-11-25T15:54:03.867Z,74.32
2022-11-25T15:56:32.785Z,74.02
2022-11-25T15:59:01.912Z,75.06
2022-11-25T16:01:29.991Z,74.88
2022-11-25T16:04:11.855Z,74.88
2022-11-25T16:06:52.525Z,74.61
2022-11-25T16:09:21.593Z,75.08
2022-11-25T16:11:48.250Z,74.83
2022-11-25T16:14:34.904Z,74.95
2022-11-25T16:17:04.648Z,74.98
2022-11-25T16:19:40.191Z,74.82
2022-11-25T16:22:14.459Z,74.50
2022-11-25T16:25:01.885Z,74.35
2022-11-25T16:27:29.686Z,74.85
2022-11-25T16:30:05.798Z,74.92
2022-11-25T16:32:33.739Z,75.14
2022-11-25T16:35:12.393Z,75.62
2022-11-25T16:37:40.940Z,75.54
2022-11-25T16:40:17.931Z,75.82
2022-11-25T16:42:49.212Z,76.10
2022-11-25T16:45:25.061Z,76.12
2022-11-25T16:47:52.144Z,76.35
2022-11-25T16:50:19.924Z,76.85
2022-11-25T16:52:47.365Z,76.81
2022-11-25T16:55:14.357Z,76.39
2022-11-25T16:57:42.001Z,76.34
2022-11-25T17:00:14.860Z,76.45
2022-11-25T17:02:41.915Z,76.56
2022-11-25T17:05:19.445Z,76.34
2022-11-25T17:07:47.473Z,76.52
2022-11-25T17:10:14.551Z,77.27
2022-11-25T17:12:44.259Z,77.33
2022-11-25T17:15:20.305Z,76.75
2022-11-25T17:17:48.153Z,76.47
2022-11-25T17:20:21.948Z,76.95
2022-11-25T17:22:49.093Z,76.75
2022-11-25T17:25:15.973Z,78.10
2022-11-25T17:27:43.403Z,77.89
2022-11-25T17:30:19.112Z,77.24
2022-11-25T17:32:46.700Z,77.71
2022-11-25T17:35:19.170Z,78.58
2022-11-25T17:37:46.913Z,77.89
2022-11-25T17:40:14.085Z,78.04
2022-11-25T17:42:41.831Z,77.81
2022-11-25T17:45:20.582Z,77.97
2022-11-25T17:47:47.835Z,77.96
2022-11-25T17:50:19.843Z,77.95
2022-11-25T17:52:46.763Z,79.30
2022-11-25T17:55:13.765Z,79.71
2022-11-25T17:57:40.602Z,79.57
2022-11-25T18:00:12.704Z,79.22
2022-11-25T18:02:39.984Z,79.13
2022-11-25T18:05:23.620Z,79.26
2022-11-25T18:07:51.277Z,79.14
2022-11-25T18:10:20.564Z,79.02
2022-11-25T18:12:49.081Z,79.01
2022-11-25T18:15:21.235Z,78.96
2022-11-25T18:17:48.153Z,79.60
2022-11-25T18:20:20.746Z,81.45
2022-11-25T18:22:48.149Z,80.80
2022-11-25T18:25:20.700Z,80.19
2022-11-25T18:27:47.967Z,82.05
2022-11-25T18:30:20.254Z,80.64
2022-11-25T18:32:47.824Z,79.98
2022-11-25T18:35:20.112Z,80.95
2022-11-25T18:37:47.085Z,81.28
2022-11-25T18:40:15.137Z,80.98
2022-11-25T18:42:47.821Z,81.05
2022-11-25T18:45:20.252Z,80.93
2022-11-25T18:47:47.492Z,80.49
2022-11-25T18:50:18.436Z,81.20
2022-11-25T18:52:46.962Z,81.31
2022-11-25T18:55:15.687Z,81.62
2022-11-25T18:57:45.827Z,81.31
2022-11-25T19:00:37.767Z,81.86
2022-11-25T19:03:04.570Z,81.42
2022-11-25T19:05:33.510Z,80.92
2022-11-25T19:08:00.458Z,81.44
2022-11-25T19:10:30.014Z,81.71
2022-11-25T19:13:00.309Z,81.11
2022-11-25T19:15:27.420Z,80.82
2022-11-25T19:18:02.509Z,80.84
2022-11-25T19:20:30.445Z,80.92
2022-11-25T19:23:00.960Z,80.92
2022-11-25T19:25:28.576Z,81.01
2022-11-25T19:27:58.020Z,81.81
2022-11-25T19:30:26.747Z,82.31
2022-11-25T19:32:56.644Z,82.16
2022-11-25T19:35:27.299Z,81.99
2022-11-25T19:37:54.117Z,81.80
2022-11-25T19:40:22.473Z,82.70
2022-11-25T19:42:49.308Z,82.44
2022-11-25T19:45:18.036Z,82.80
2022-11-25T19:47:47.507Z,83.11
2022-11-25T19:50:20.265Z,82.70
2022-11-25T19:52:49.957Z,82.46
2022-11-25T19:55:18.439Z,81.89
2022-11-25T19:57:46.059Z,82.53
2022-11-25T20:00:14.751Z,83.08
2022-11-25T20:02:42.261Z,83.27
2022-11-25T20:05:09.467Z,83.30
2022-11-25T20:07:37.178Z,83.10
2022-11-25T20:10:19.621Z,83.09
2022-11-25T20:12:46.562Z,83.52
2022-11-25T20:15:13.544Z,83.80
2022-11-25T20:17:45.573Z,83.70
2022-11-25T20:20:17.824Z,83.23
2022-11-25T20:22:54.881Z,83.72
2022-11-25T20:25:22.331Z,84.06
2022-11-25T20:27:48.994Z,83.67
2022-11-25T20:30:19.553Z,84.46
2022-11-25T20:32:46.672Z,85.04
2022-11-25T20:35:13.551Z,85.03
2022-11-25T20:37:51.373Z,84.69
2022-11-25T20:40:21.216Z,84.07
2022-11-25T20:42:49.440Z,84.20
2022-11-25T20:45:18.586Z,84.21
2022-11-25T20:47:46.062Z,84.29
2022-11-25T20:50:14.141Z,84.17
2022-11-25T20:52:41.584Z,84.11
2022-11-25T20:55:27.670Z,84.37
2022-11-25T20:57:54.580Z,84.48
2022-11-25T21:00:26.842Z,85.00
2022-11-25T21:02:55.441Z,84.44
2022-11-25T21:05:22.440Z,83.97
2022-11-25T21:07:50.479Z,84.44
2022-11-25T21:10:22.321Z,84.92
2022-11-25T21:12:49.243Z,84.76
2022-11-25T21:15:19.439Z,85.18
2022-11-25T21:17:46.587Z,85.38
2022-11-25T21:20:14.362Z,85.45
2022-11-25T21:22:43.982Z,85.56
2022-11-25T21:25:16.191Z,84.74
2022-11-25T21:27:43.607Z,84.72
2022-11-25T21:30:18.421Z,85.05
2022-11-25T21:32:45.988Z,84.84
2022-11-25T21:35:13.583Z,85.17
2022-11-25T21:37:41.598Z,84.42
2022-11-25T21:40:22.065Z,84.45
2022-11-25T21:42:48.938Z,84.91
2022-11-25T21:45:16.796Z,84.58
2022-11-25T21:47:43.516Z,84.71
2022-11-25T21:50:17.977Z,85.16
2022-11-25T21:52:44.815Z,84.94
2022-11-25T21:55:16.049Z,85.60
2022-11-25T21:57:43.345Z,84.64
2022-11-25T22:00:28.488Z,85.01
2022-11-25T22:02:55.393Z,84.78
2022-11-25T22:05:25.892Z,84.55
2022-11-25T22:07:55.032Z,84.35
2022-11-25T22:10:22.896Z,84.58
2022-11-25T22:12:51.018Z,85.88
2022-11-25T22:15:21.995Z,85.38
2022-11-25T22:17:51.008Z,85.57
2022-11-25T22:20:27.695Z,85.44
2022-11-25T22:22:55.261Z,85.53
2022-11-25T22:25:23.431Z,85.81
2022-11-25T22:27:51.517Z,85.15
2022-11-25T22:30:20.317Z,85.58
2022-11-25T22:32:48.598Z,86.23
2022-11-25T22:35:17.294Z,86.09
2022-11-25T22:37:44.430Z,85.26
2022-11-25T22:40:11.839Z,85.63
2022-11-25T22:42:39.181Z,85.58
2022-11-25T22:45:07.488Z,85.35
2022-11-25T22:47:44.256Z,85.49
2022-11-25T22:50:28.384Z,84.75
2022-11-25T22:52:55.934Z,85.29
2022-11-25T22:55:26.638Z,84.89
2022-11-25T22:57:55.291Z,85.06
2022-11-25T23:00:28.050Z,85.60
2022-11-25T23:02:56.609Z,85.79
2022-11-25T23:05:32.494Z,86.59
2022-11-25T23:08:02.449Z,85.72
2022-11-25T23:10:31.565Z,85.31
2022-11-25T23:12:58.218Z,86.66
2022-11-25T23:15:25.197Z,86.08
2022-11-25T23:17:54.927Z,85.94
2022-11-25T23:20:26.650Z,85.67
2022-11-25T23:22:53.409Z,85.91
2022-11-25T23:25:21.814Z,85.77
2022-11-25T23:27:49.060Z,85.72
2022-11-25T23:30:20.733Z,85.63
2022-11-25T23:32:52.609Z,85.89
2022-11-25T23:35:38.210Z,85.95
2022-11-25T23:38:15.069Z,85.70
2022-11-25T23:40:41.828Z,85.43
2022-11-25T23:43:15.061Z,85.21
2022-11-25T23:45:56.095Z,85.69
2022-11-25T23:48:32.065Z,85.33
2022-11-25T23:50:59.381Z,85.47
2022-11-25T23:53:31.061Z,85.86
2022-11-25T23:55:58.195Z,86.69
2022-11-25T23:58:25.181Z,86.12
